createdAt,value
2019-02-24T00:00:37.618Z,1035.38
2019-02-24T00:01:37.631Z,1035.34
2019-02-24T00:02:37.642Z,1035.35
2019-02-24T00:03:37.653Z,1035.32
2019-02-24T00:04:37.665Z,1035.32
2019-02-24T00:05:37.675Z,1035.32
2019-02-24T00:06:37.687Z,1035.27
2019-02-24T00:07:37.698Z,1035.29
2019-02-24T00:08:37.710Z,1035.25
2019-02-24T00:09:37.721Z,1035.21
2019-02-24T00:10:37.732Z,1035.2
2019-02-24T00:12:37.755Z,1035.21
2019-02-24T00:13:37.766Z,1035.25
2019-02-24T00:14:37.779Z,1035.29
2019-02-24T00:15:37.790Z,1035.26
2019-02-24T00:16:37.801Z,1035.26
2019-02-24T00:17:37.812Z,1035.24
2019-02-24T00:18:37.827Z,1035.23
2019-02-24T00:19:37.835Z,1035.2
2019-02-24T00:20:37.846Z,1035.19
2019-02-24T00:21:37.858Z,1035.21
2019-02-24T00:22:37.869Z,1035.21
2019-02-24T00:23:37.881Z,1035.24
2019-02-24T00:24:37.891Z,1035.23
2019-02-24T00:25:37.903Z,1035.24
2019-02-24T00:26:37.915Z,1035.23
2019-02-24T00:28:37.937Z,1035.23
2019-02-24T00:29:37.948Z,1035.2
2019-02-24T00:30:37.960Z,1035.16
2019-02-24T00:31:37.972Z,1035.18
2019-02-24T00:32:37.982Z,1035.16
2019-02-24T00:33:37.994Z,1035.12
2019-02-24T00:34:38.006Z,1035.13
2019-02-24T00:35:38.017Z,1035.1
2019-02-24T00:36:38.030Z,1035.08
2019-02-24T00:37:38.039Z,1035.05
2019-02-24T00:38:38.051Z,1035.02
2019-02-24T00:39:38.063Z,1035.01
2019-02-24T00:40:38.074Z,1034.94
2019-02-24T00:41:38.085Z,1034.99
2019-02-24T00:42:38.096Z,1034.94
2019-02-24T00:44:38.119Z,1034.97
2019-02-24T00:45:38.131Z,1034.94
2019-02-24T00:46:38.141Z,1034.89
2019-02-24T00:47:38.153Z,1034.93
2019-02-24T00:48:38.165Z,1034.93
2019-02-24T00:49:38.177Z,1034.91
2019-02-24T00:50:38.186Z,1034.88
2019-02-24T00:51:38.198Z,1034.82
2019-02-24T00:52:38.210Z,1034.79
2019-02-24T00:53:38.221Z,1034.8
2019-02-24T00:54:38.233Z,1034.84
2019-02-24T00:55:38.245Z,1034.86
2019-02-24T00:56:38.256Z,1034.88
2019-02-24T00:57:38.267Z,1034.88
2019-02-24T00:59:38.291Z,1034.88
2019-02-24T01:00:38.301Z,1034.92
2019-02-24T01:01:38.314Z,1034.89
2019-02-24T01:02:38.328Z,1034.89
2019-02-24T01:03:38.336Z,1034.88
2019-02-24T01:04:38.346Z,1034.87
2019-02-24T01:05:38.358Z,1034.85
2019-02-24T01:06:38.370Z,1034.85
2019-02-24T01:07:38.381Z,1034.91
2019-02-24T01:08:38.392Z,1034.92
2019-02-24T01:09:38.404Z,1034.89
2019-02-24T01:10:38.416Z,1034.89
2019-02-24T01:11:38.426Z,1034.88
2019-02-24T01:12:38.438Z,1034.93
2019-02-24T01:13:38.449Z,1034.91
2019-02-24T01:14:38.461Z,1034.93
2019-02-24T01:15:38.471Z,1034.91
2019-02-24T01:16:38.483Z,1034.91
2019-02-24T01:17:38.495Z,1034.91
2019-02-24T01:18:38.505Z,1034.87
2019-02-24T01:19:38.517Z,1034.91
2019-02-24T01:20:38.529Z,1034.9
2019-02-24T01:21:38.540Z,1034.89
2019-02-24T01:22:38.659Z,1034.87
2019-02-24T01:23:38.563Z,1034.91
2019-02-24T01:24:38.574Z,1034.84
2019-02-24T01:25:38.586Z,1034.94
2019-02-24T01:26:38.596Z,1034.95
2019-02-24T01:27:38.611Z,1034.98
2019-02-24T01:28:38.619Z,1035.03
2019-02-24T01:29:38.630Z,1035.04
2019-02-24T01:31:38.653Z,1035.04
2019-02-24T01:32:38.664Z,1035.07
2019-02-24T01:33:38.675Z,1035.07
2019-02-24T01:34:38.697Z,1035.08
2019-02-24T01:35:38.698Z,1035.09
2019-02-24T01:36:38.709Z,1035.1
2019-02-24T01:37:38.721Z,1035.13
2019-02-24T01:38:38.733Z,1035.15
2019-02-24T01:39:38.743Z,1035.13
2019-02-24T01:40:38.754Z,1035.11
2019-02-24T01:41:38.765Z,1035.13
2019-02-24T01:42:38.776Z,1035.14
2019-02-24T01:43:38.787Z,1035.08
2019-02-24T01:44:38.798Z,1035.09
2019-02-24T01:45:38.810Z,1035.05
2019-02-24T01:47:38.833Z,1034.97
2019-02-24T01:48:38.843Z,1035
2019-02-24T01:49:38.855Z,1034.93
2019-02-24T01:50:38.867Z,1034.92
2019-02-24T01:51:38.877Z,1034.91
2019-02-24T01:52:38.888Z,1034.85
2019-02-24T01:53:38.900Z,1034.78
2019-02-24T01:54:38.911Z,1034.75
2019-02-24T01:55:38.923Z,1034.67
2019-02-24T01:56:38.933Z,1034.64
2019-02-24T01:57:38.945Z,1034.6
2019-02-24T01:58:38.962Z,1034.63
2019-02-24T01:59:38.966Z,1034.65
2019-02-24T02:00:38.978Z,1034.65
2019-02-24T02:01:38.990Z,1034.64
2019-02-24T02:03:39.012Z,1034.6
2019-02-24T02:04:39.022Z,1034.56
2019-02-24T02:05:39.035Z,1034.53
2019-02-24T02:06:39.094Z,1034.44
2019-02-24T02:07:39.056Z,1034.4
2019-02-24T02:08:39.067Z,1034.37
2019-02-24T02:09:39.078Z,1034.39
2019-02-24T02:10:39.089Z,1034.42
2019-02-24T02:11:39.100Z,1034.4
2019-02-24T02:12:39.113Z,1034.4
2019-02-24T02:13:39.122Z,1034.39
2019-02-24T02:14:39.133Z,1034.4
2019-02-24T02:15:39.145Z,1034.39
2019-02-24T02:16:39.156Z,1034.45
2019-02-24T02:17:39.167Z,1034.43
2019-02-24T02:19:39.189Z,1034.47
2019-02-24T02:20:39.200Z,1034.51
2019-02-24T02:21:39.211Z,1034.51
2019-02-24T02:22:39.230Z,1034.54
2019-02-24T02:23:39.234Z,1034.52
2019-02-24T02:24:39.244Z,1034.5
2019-02-24T02:25:39.307Z,1034.52
2019-02-24T02:26:39.267Z,1034.49
2019-02-24T02:27:39.278Z,1034.47
2019-02-24T02:28:43.910Z,1034.42
2019-02-24T02:29:39.301Z,1034.39
2019-02-24T02:30:39.312Z,1034.36
2019-02-24T02:31:39.323Z,1034.37
2019-02-24T02:32:39.335Z,1034.39
2019-02-24T02:34:39.358Z,1034.44
2019-02-24T02:35:39.367Z,1034.48
2019-02-24T02:36:39.378Z,1034.47
2019-02-24T02:37:39.420Z,1034.43
2019-02-24T02:38:39.402Z,1034.36
2019-02-24T02:39:39.411Z,1034.36
2019-02-24T02:40:39.422Z,1034.37
2019-02-24T02:41:39.435Z,1034.36
2019-02-24T02:42:39.445Z,1034.33
2019-02-24T02:43:39.457Z,1034.31
2019-02-24T02:44:39.467Z,1034.28
2019-02-24T02:45:39.479Z,1034.32
2019-02-24T02:46:39.490Z,1034.26
2019-02-24T02:47:39.500Z,1034.33
2019-02-24T02:48:39.511Z,1034.35
2019-02-24T02:49:39.526Z,1034.35
2019-02-24T02:50:39.533Z,1034.34
2019-02-24T02:51:39.545Z,1034.39
2019-02-24T02:52:39.556Z,1034.37
2019-02-24T02:53:39.577Z,1034.4
2019-02-24T02:54:39.579Z,1034.37
2019-02-24T02:55:39.589Z,1034.37
2019-02-24T02:56:39.600Z,1034.36
2019-02-24T02:57:39.610Z,1034.34
2019-02-24T02:58:39.621Z,1034.37
2019-02-24T02:59:39.633Z,1034.37
2019-02-24T03:00:39.644Z,1034.35
2019-02-24T03:01:39.655Z,1034.34
2019-02-24T03:02:39.666Z,1034.34
2019-02-24T03:03:39.677Z,1034.3
2019-02-24T03:04:39.687Z,1034.26
2019-02-24T03:06:39.710Z,1034.25
2019-02-24T03:07:39.722Z,1034.19
2019-02-24T03:08:39.732Z,1034.18
2019-02-24T03:09:39.743Z,1034.24
2019-02-24T03:10:39.755Z,1034.22
2019-02-24T03:11:39.766Z,1034.23
2019-02-24T03:12:39.775Z,1034.21
2019-02-24T03:13:39.890Z,1034.24
2019-02-24T03:14:39.799Z,1034.19
2019-02-24T03:15:39.810Z,1034.14
2019-02-24T03:16:39.820Z,1034.15
2019-02-24T03:17:39.831Z,1034.1
2019-02-24T03:18:39.842Z,1034.13
2019-02-24T03:19:39.855Z,1034.13
2019-02-24T03:20:39.866Z,1034.07
2019-02-24T03:22:39.888Z,1034.04
2019-02-24T03:23:39.897Z,1033.99
2019-02-24T03:24:39.910Z,1034
2019-02-24T03:25:39.920Z,1033.95
2019-02-24T03:26:39.930Z,1033.94
2019-02-24T03:27:39.942Z,1033.95
2019-02-24T03:28:39.956Z,1033.94
2019-02-24T03:29:39.964Z,1033.96
2019-02-24T03:30:39.976Z,1033.98
2019-02-24T03:31:39.987Z,1034.02
2019-02-24T03:32:39.998Z,1034.07
2019-02-24T03:33:40.010Z,1034.11
2019-02-24T03:34:40.018Z,1034.18
2019-02-24T03:35:40.030Z,1034.17
2019-02-24T03:36:40.042Z,1034.16
2019-02-24T03:38:40.064Z,1034.15
2019-02-24T03:39:40.075Z,1034.22
2019-02-24T03:40:40.085Z,1034.19
2019-02-24T03:41:40.097Z,1034.2
2019-02-24T03:42:40.109Z,1034.2
2019-02-24T03:43:40.122Z,1034.16
2019-02-24T03:44:40.131Z,1034.19
2019-02-24T03:45:40.141Z,1034.18
2019-02-24T03:46:40.151Z,1034.18
2019-02-24T03:47:40.163Z,1034.21
2019-02-24T03:48:40.173Z,1034.2
2019-02-24T03:49:40.184Z,1034.18
2019-02-24T03:50:40.196Z,1034.13
2019-02-24T03:51:40.208Z,1034.12
2019-02-24T03:52:40.218Z,1034.09
2019-02-24T03:54:40.242Z,1034.02
2019-02-24T03:55:40.266Z,1033.99
2019-02-24T03:56:40.265Z,1034.01
2019-02-24T03:57:40.276Z,1033.96
2019-02-24T03:58:40.287Z,1033.97
2019-02-24T03:59:40.296Z,1033.9
2019-02-24T04:00:40.307Z,1033.93
2019-02-24T04:01:40.333Z,1033.92
2019-02-24T04:02:40.333Z,1033.88
2019-02-24T04:03:40.340Z,1033.89
2019-02-24T04:04:40.352Z,1033.88
2019-02-24T04:05:40.364Z,1033.88
2019-02-24T04:06:40.804Z,1033.89
2019-02-24T04:07:40.387Z,1033.86
2019-02-24T04:09:40.410Z,1033.85
2019-02-24T04:10:40.420Z,1033.8
2019-02-24T04:11:40.434Z,1033.76
2019-02-24T04:12:40.442Z,1033.75
2019-02-24T04:13:40.457Z,1033.73
2019-02-24T04:14:40.464Z,1033.72
2019-02-24T04:15:40.477Z,1033.67
2019-02-24T04:16:40.547Z,1033.71
2019-02-24T04:17:40.498Z,1033.64
2019-02-24T04:18:40.510Z,1033.64
2019-02-24T04:19:40.521Z,1033.66
2019-02-24T04:20:40.533Z,1033.7
2019-02-24T04:21:40.591Z,1033.69
2019-02-24T04:22:40.555Z,1033.71
2019-02-24T04:23:40.565Z,1033.7
2019-02-24T04:24:40.581Z,1033.66
2019-02-24T04:25:40.588Z,1033.68
2019-02-24T04:26:40.599Z,1033.61
2019-02-24T04:27:40.611Z,1033.6
2019-02-24T04:28:40.622Z,1033.53
2019-02-24T04:29:40.732Z,1033.55
2019-02-24T04:30:40.645Z,1033.52
2019-02-24T04:31:40.655Z,1033.52
2019-02-24T04:32:40.667Z,1033.51
2019-02-24T04:33:40.677Z,1033.53
2019-02-24T04:34:40.689Z,1033.51
2019-02-24T04:35:40.701Z,1033.51
2019-02-24T04:36:40.710Z,1033.49
2019-02-24T04:37:40.723Z,1033.5
2019-02-24T04:38:40.734Z,1033.5
2019-02-24T04:39:40.752Z,1033.47
2019-02-24T04:41:40.769Z,1033.45
2019-02-24T04:42:40.779Z,1033.49
2019-02-24T04:43:40.791Z,1033.43
2019-02-24T04:44:40.802Z,1033.47
2019-02-24T04:45:40.812Z,1033.46
2019-02-24T04:46:40.875Z,1033.51
2019-02-24T04:47:40.836Z,1033.56
2019-02-24T04:48:40.846Z,1033.55
2019-02-24T04:49:40.858Z,1033.61
2019-02-24T04:50:40.968Z,1033.64
2019-02-24T04:51:40.879Z,1033.7
2019-02-24T04:52:40.891Z,1033.7
2019-02-24T04:53:40.902Z,1033.71
2019-02-24T04:54:40.915Z,1033.69
2019-02-24T04:55:40.925Z,1033.67
2019-02-24T04:57:40.948Z,1033.65
2019-02-24T04:58:40.959Z,1033.72
2019-02-24T04:59:40.971Z,1033.72
2019-02-24T05:00:40.980Z,1033.72
2019-02-24T05:01:40.993Z,1033.8
2019-02-24T05:02:41.002Z,1033.79
2019-02-24T05:03:41.017Z,1033.77
2019-02-24T05:04:41.026Z,1033.76
2019-02-24T05:05:41.035Z,1033.75
2019-02-24T05:06:41.048Z,1033.8
2019-02-24T05:07:41.058Z,1033.82
2019-02-24T05:08:41.119Z,1033.85
2019-02-24T05:09:41.079Z,1033.84
2019-02-24T05:10:41.091Z,1033.84
2019-02-24T05:11:41.102Z,1033.84
2019-02-24T05:13:41.125Z,1033.87
2019-02-24T05:14:41.135Z,1033.87
2019-02-24T05:15:41.146Z,1033.9
2019-02-24T05:16:41.157Z,1033.93
2019-02-24T05:17:41.168Z,1033.91
2019-02-24T05:18:41.184Z,1033.89
2019-02-24T05:19:41.192Z,1033.89
2019-02-24T05:20:41.200Z,1033.92
2019-02-24T05:21:41.214Z,1033.93
2019-02-24T05:22:41.225Z,1033.99
2019-02-24T05:23:42.934Z,1034.02
2019-02-24T05:24:41.246Z,1034.01
2019-02-24T05:25:41.257Z,1034.02
2019-02-24T05:26:41.269Z,1034.02
2019-02-24T05:27:41.278Z,1034.01
2019-02-24T05:29:45.606Z,1033.98
2019-02-24T05:30:41.312Z,1034
2019-02-24T05:31:41.322Z,1033.96
2019-02-24T05:32:41.334Z,1033.97
2019-02-24T05:33:41.344Z,1033.97
2019-02-24T05:34:41.355Z,1033.97
2019-02-24T05:35:41.373Z,1034.02
2019-02-24T05:36:41.377Z,1033.98
2019-02-24T05:37:41.389Z,1033.98
2019-02-24T05:38:41.401Z,1033.95
2019-02-24T05:39:41.410Z,1033.96
2019-02-24T05:40:41.422Z,1033.9
2019-02-24T05:41:41.433Z,1033.89
2019-02-24T05:42:42.531Z,1033.9
2019-02-24T05:44:41.467Z,1033.87
2019-02-24T05:45:41.477Z,1033.88
2019-02-24T05:46:41.488Z,1033.86
2019-02-24T05:47:41.500Z,1033.83
2019-02-24T05:48:41.511Z,1033.79
2019-02-24T05:49:41.521Z,1033.77
2019-02-24T05:50:41.533Z,1033.82
2019-02-24T05:51:41.555Z,1033.81
2019-02-24T05:52:41.554Z,1033.8
2019-02-24T05:53:41.565Z,1033.8
2019-02-24T05:54:41.576Z,1033.78
2019-02-24T05:55:41.587Z,1033.76
2019-02-24T05:56:41.599Z,1033.76
2019-02-24T05:57:41.611Z,1033.74
2019-02-24T05:58:41.621Z,1033.78
2019-02-24T05:59:41.633Z,1033.82
2019-02-24T06:00:41.645Z,1033.83
2019-02-24T06:01:41.654Z,1033.77
2019-02-24T06:02:41.665Z,1033.71
2019-02-24T06:03:41.676Z,1033.7
2019-02-24T06:04:41.687Z,1033.64
2019-02-24T06:05:41.747Z,1033.65
2019-02-24T06:06:41.710Z,1033.63
2019-02-24T06:07:41.731Z,1033.66
2019-02-24T06:08:41.785Z,1033.64
2019-02-24T06:09:41.743Z,1033.66
2019-02-24T06:10:41.754Z,1033.6
2019-02-24T06:11:41.765Z,1033.64
2019-02-24T06:12:41.777Z,1033.59
2019-02-24T06:13:41.798Z,1033.65
2019-02-24T06:14:41.804Z,1033.64
2019-02-24T06:16:41.828Z,1033.63
2019-02-24T06:17:41.833Z,1033.68
2019-02-24T06:18:41.843Z,1033.62
2019-02-24T06:19:41.854Z,1033.65
2019-02-24T06:20:41.866Z,1033.67
2019-02-24T06:21:41.877Z,1033.66
2019-02-24T06:22:41.887Z,1033.66
2019-02-24T06:23:41.899Z,1033.65
2019-02-24T06:24:41.915Z,1033.63
2019-02-24T06:25:41.930Z,1033.65
2019-02-24T06:26:41.932Z,1033.59
2019-02-24T06:27:41.944Z,1033.57
2019-02-24T06:28:41.955Z,1033.59
2019-02-24T06:29:41.967Z,1033.59
2019-02-24T06:30:41.978Z,1033.58
2019-02-24T06:32:42.001Z,1033.63
2019-02-24T06:33:42.010Z,1033.65
2019-02-24T06:34:42.022Z,1033.57
2019-02-24T06:35:42.034Z,1033.62
2019-02-24T06:36:42.044Z,1033.65
2019-02-24T06:37:42.055Z,1033.67
2019-02-24T06:38:42.067Z,1033.69
2019-02-24T06:39:42.079Z,1033.7
2019-02-24T06:40:42.090Z,1033.72
2019-02-24T06:41:42.102Z,1033.74
2019-02-24T06:42:42.114Z,1033.72
2019-02-24T06:43:42.124Z,1033.75
2019-02-24T06:44:42.135Z,1033.8
2019-02-24T06:45:42.147Z,1033.79
2019-02-24T06:46:42.159Z,1033.85
2019-02-24T06:48:42.181Z,1033.87
2019-02-24T06:49:42.193Z,1033.87
2019-02-24T06:50:42.204Z,1033.9
2019-02-24T06:51:42.217Z,1033.92
2019-02-24T06:52:42.231Z,1033.92
2019-02-24T06:53:42.238Z,1033.92
2019-02-24T06:54:42.250Z,1033.94
2019-02-24T06:55:42.261Z,1033.98
2019-02-24T06:56:42.272Z,1033.98
2019-02-24T06:57:42.283Z,1034
2019-02-24T06:58:42.346Z,1034.04
2019-02-24T06:59:42.308Z,1034.05
2019-02-24T07:00:42.318Z,1034.05
2019-02-24T07:01:42.329Z,1034.01
2019-02-24T07:02:42.340Z,1034.04
2019-02-24T07:04:42.364Z,1034.06
2019-02-24T07:05:42.376Z,1034.02
2019-02-24T07:06:42.386Z,1034.04
2019-02-24T07:07:42.397Z,1034.06
2019-02-24T07:08:42.409Z,1034.05
2019-02-24T07:09:42.420Z,1034.02
2019-02-24T07:10:42.431Z,1034.02
2019-02-24T07:11:42.443Z,1033.98
2019-02-24T07:12:42.454Z,1033.98
2019-02-24T07:13:42.468Z,1034.01
2019-02-24T07:14:42.480Z,1034
2019-02-24T07:15:42.489Z,1034.01
2019-02-24T07:16:42.500Z,1034
2019-02-24T07:17:42.518Z,1033.98
2019-02-24T07:19:42.536Z,1033.94
2019-02-24T07:20:42.546Z,1033.95
2019-02-24T07:21:42.559Z,1034.02
2019-02-24T07:22:42.570Z,1034.05
2019-02-24T07:23:42.582Z,1034.03
2019-02-24T07:24:42.593Z,1034.03
2019-02-24T07:25:42.605Z,1034.03
2019-02-24T07:26:42.617Z,1034.02
2019-02-24T07:27:42.627Z,1034
2019-02-24T07:28:42.639Z,1033.98
2019-02-24T07:29:42.653Z,1033.93
2019-02-24T07:30:42.665Z,1033.93
2019-02-24T07:31:42.674Z,1033.96
2019-02-24T07:32:42.686Z,1033.89
2019-02-24T07:33:42.698Z,1033.89
2019-02-24T07:34:42.710Z,1033.88
2019-02-24T07:35:42.721Z,1033.92
2019-02-24T07:36:42.733Z,1033.86
2019-02-24T07:37:42.745Z,1033.91
2019-02-24T07:38:42.756Z,1033.91
2019-02-24T07:39:42.768Z,1033.9
2019-02-24T07:40:42.781Z,1033.91
2019-02-24T07:41:42.793Z,1033.92
2019-02-24T07:42:42.804Z,1033.94
2019-02-24T07:43:42.816Z,1033.95
2019-02-24T07:44:42.828Z,1034.02
2019-02-24T07:45:42.841Z,1034.03
2019-02-24T07:46:42.852Z,1033.99
2019-02-24T07:47:42.864Z,1033.99
2019-02-24T07:48:42.877Z,1033.99
2019-02-24T07:49:42.888Z,1033.97
2019-02-24T07:51:42.913Z,1034.02
2019-02-24T07:52:42.925Z,1034.05
2019-02-24T07:53:42.936Z,1034.05
2019-02-24T07:54:42.949Z,1034.03
2019-02-24T07:55:42.961Z,1034.05
2019-02-24T07:56:42.973Z,1034.02
2019-02-24T07:57:42.985Z,1034.07
2019-02-24T07:58:42.997Z,1034.03
2019-02-24T07:59:43.010Z,1034.02
2019-02-24T08:00:43.021Z,1034
2019-02-24T08:01:43.034Z,1034.01
2019-02-24T08:02:43.047Z,1034.04
2019-02-24T08:03:43.062Z,1034.06
2019-02-24T08:04:43.070Z,1034.05
2019-02-24T08:05:43.083Z,1034.04
2019-02-24T08:07:43.108Z,1034.06
2019-02-24T08:08:43.121Z,1034.03
2019-02-24T08:09:43.133Z,1034.05
2019-02-24T08:10:43.145Z,1034.08
2019-02-24T08:11:43.157Z,1034.03
2019-02-24T08:12:43.170Z,1034.01
2019-02-24T08:13:44.071Z,1034.01
2019-02-24T08:14:43.195Z,1034.01
2019-02-24T08:15:43.206Z,1034.01
2019-02-24T08:16:43.219Z,1033.97
2019-02-24T08:17:43.232Z,1033.95
2019-02-24T08:18:49.187Z,1033.97
2019-02-24T08:19:43.256Z,1034
2019-02-24T08:20:43.271Z,1033.98
2019-02-24T08:21:43.283Z,1033.96
2019-02-24T08:23:43.307Z,1033.97
2019-02-24T08:24:43.320Z,1033.95
2019-02-24T08:25:43.333Z,1033.91
2019-02-24T08:26:43.345Z,1033.85
2019-02-24T08:27:43.358Z,1033.83
2019-02-24T08:28:43.372Z,1033.85
2019-02-24T08:29:43.385Z,1033.83
2019-02-24T08:30:43.397Z,1033.81
2019-02-24T08:31:43.411Z,1033.79
2019-02-24T08:32:43.424Z,1033.85
2019-02-24T08:33:43.435Z,1033.87
2019-02-24T08:34:43.450Z,1033.93
2019-02-24T08:35:43.463Z,1033.87
2019-02-24T08:36:43.475Z,1033.93
2019-02-24T08:37:43.487Z,1033.93
2019-02-24T08:39:43.515Z,1033.93
2019-02-24T08:40:43.527Z,1033.92
2019-02-24T08:41:43.541Z,1033.88
2019-02-24T08:42:43.554Z,1033.86
2019-02-24T08:43:43.567Z,1033.86
2019-02-24T08:44:43.581Z,1033.84
2019-02-24T08:45:43.594Z,1033.85
2019-02-24T08:46:43.607Z,1033.92
2019-02-24T08:47:43.621Z,1033.86
2019-02-24T08:48:43.635Z,1033.91
2019-02-24T08:49:43.648Z,1033.85
2019-02-24T08:50:43.712Z,1033.91
2019-02-24T08:51:43.675Z,1033.89
2019-02-24T08:52:43.690Z,1033.92
2019-02-24T08:54:43.718Z,1033.95
2019-02-24T08:55:43.731Z,1033.97
2019-02-24T08:56:43.744Z,1033.99
2019-02-24T08:57:43.762Z,1034.04
2019-02-24T08:58:43.773Z,1034.03
2019-02-24T08:59:43.787Z,1034.07
2019-02-24T09:00:50.690Z,1034.09
2019-02-24T09:01:43.819Z,1034.07
2019-02-24T09:02:43.831Z,1034.02
2019-02-24T09:03:43.846Z,1033.99
2019-02-24T09:04:43.862Z,1033.99
2019-02-24T09:05:43.877Z,1033.97
2019-02-24T09:06:43.891Z,1033.92
2019-02-24T09:07:43.906Z,1033.86
2019-02-24T09:08:43.921Z,1033.87
2019-02-24T09:09:43.939Z,1033.85
2019-02-24T09:10:43.952Z,1033.86
2019-02-24T09:11:43.968Z,1033.83
2019-02-24T09:12:43.984Z,1033.85
2019-02-24T09:13:43.998Z,1033.81
2019-02-24T09:14:44.018Z,1033.85
2019-02-24T09:15:44.034Z,1033.84
2019-02-24T09:16:44.046Z,1033.89
2019-02-24T09:17:44.063Z,1033.88
2019-02-24T09:18:44.081Z,1033.93
2019-02-24T09:19:44.094Z,1033.97
2019-02-24T09:20:44.109Z,1033.95
2019-02-24T09:21:44.125Z,1033.98
2019-02-24T09:22:44.140Z,1034.06
2019-02-24T09:23:44.157Z,1034.05
2019-02-24T09:24:44.173Z,1034.03
2019-02-24T09:26:44.206Z,1034.08
2019-02-24T09:27:44.222Z,1034.13
2019-02-24T09:28:44.238Z,1034.14
2019-02-24T09:29:44.254Z,1034.19
2019-02-24T09:30:44.271Z,1034.2
2019-02-24T09:31:44.288Z,1034.21
2019-02-24T09:32:44.345Z,1034.24
2019-02-24T09:33:44.321Z,1034.25
2019-02-24T09:34:44.337Z,1034.28
2019-02-24T09:35:44.353Z,1034.29
2019-02-24T09:36:44.372Z,1034.24
2019-02-24T09:37:44.387Z,1034.27
2019-02-24T09:38:44.404Z,1034.22
2019-02-24T09:39:44.423Z,1034.21
2019-02-24T09:40:44.436Z,1034.18
2019-02-24T09:42:44.471Z,1034.15
2019-02-24T09:43:44.487Z,1034.19
2019-02-24T09:44:44.504Z,1034.19
2019-02-24T09:45:44.521Z,1034.23
2019-02-24T09:46:44.538Z,1034.23
2019-02-24T09:47:46.955Z,1034.25
2019-02-24T09:48:44.574Z,1034.26
2019-02-24T09:49:44.589Z,1034.3
2019-02-24T09:50:44.607Z,1034.28
2019-02-24T09:51:44.623Z,1034.35
2019-02-24T09:52:44.642Z,1034.37
2019-02-24T09:53:44.658Z,1034.29
2019-02-24T09:54:44.674Z,1034.29
2019-02-24T09:55:44.694Z,1034.32
2019-02-24T09:56:44.709Z,1034.26
2019-02-24T09:58:44.743Z,1034.23
2019-02-24T09:59:44.761Z,1034.23
2019-02-24T10:00:44.779Z,1034.25
2019-02-24T10:01:44.798Z,1034.28
2019-02-24T10:02:44.815Z,1034.24
2019-02-24T10:03:44.831Z,1034.28
2019-02-24T10:04:44.848Z,1034.24
2019-02-24T10:05:44.865Z,1034.3
2019-02-24T10:06:44.882Z,1034.23
2019-02-24T10:07:44.901Z,1034.18
2019-02-24T10:08:44.917Z,1034.17
2019-02-24T10:09:44.935Z,1034.19
2019-02-24T10:10:44.954Z,1034.15
2019-02-24T10:11:44.971Z,1034.14
2019-02-24T10:12:44.994Z,1034.14
2019-02-24T10:14:45.025Z,1034.08
2019-02-24T10:15:45.042Z,1034.06
2019-02-24T10:16:45.059Z,1034.07
2019-02-24T10:17:45.078Z,1034.06
2019-02-24T10:18:45.095Z,1034.05
2019-02-24T10:19:45.113Z,1034.07
2019-02-24T10:20:45.131Z,1034.08
2019-02-24T10:21:45.149Z,1034.07
2019-02-24T10:22:45.166Z,1034.09
2019-02-24T10:23:45.184Z,1034.1
2019-02-24T10:24:45.202Z,1034.09
2019-02-24T10:25:45.221Z,1034.09
2019-02-24T10:26:45.240Z,1034.13
2019-02-24T10:27:45.257Z,1034.13
2019-02-24T10:29:45.293Z,1034.11
2019-02-24T10:30:45.311Z,1034.1
2019-02-24T10:31:45.329Z,1034.12
2019-02-24T10:32:45.346Z,1034.13
2019-02-24T10:33:45.367Z,1034.15
2019-02-24T10:34:45.383Z,1034.16
2019-02-24T10:35:45.400Z,1034.2
2019-02-24T10:36:45.418Z,1034.21
2019-02-24T10:37:45.437Z,1034.22
2019-02-24T10:38:45.453Z,1034.18
2019-02-24T10:39:45.471Z,1034.16
2019-02-24T10:40:45.492Z,1034.18
2019-02-24T10:41:45.507Z,1034.16
2019-02-24T10:42:45.525Z,1034.14
2019-02-24T10:43:45.542Z,1034.11
2019-02-24T10:44:45.561Z,1034.07
2019-02-24T10:45:45.577Z,1034.09
2019-02-24T10:46:45.595Z,1034.07
2019-02-24T10:47:45.614Z,1034.07
2019-02-24T10:48:45.631Z,1034.07
2019-02-24T10:49:45.646Z,1034.06
2019-02-24T10:50:45.664Z,1034.12
2019-02-24T10:51:45.682Z,1034.11
2019-02-24T10:52:45.698Z,1034.11
2019-02-24T10:53:45.718Z,1034.13
2019-02-24T10:54:45.733Z,1034.14
2019-02-24T10:55:45.752Z,1034.17
2019-02-24T10:56:45.768Z,1034.14
2019-02-24T10:57:45.785Z,1034.15
2019-02-24T10:58:45.803Z,1034.09
2019-02-24T10:59:45.821Z,1034.08
2019-02-24T11:01:45.854Z,1034.12
2019-02-24T11:02:45.872Z,1034.09
2019-02-24T11:03:45.888Z,1034.03
2019-02-24T11:04:45.906Z,1034.04
2019-02-24T11:05:45.923Z,1034.07
2019-02-24T11:06:45.940Z,1034.03
2019-02-24T11:07:45.957Z,1034.01
2019-02-24T11:08:45.974Z,1034.03
2019-02-24T11:09:45.991Z,1034.04
2019-02-24T11:10:46.008Z,1034.03
2019-02-24T11:11:46.028Z,1034.04
2019-02-24T11:12:46.042Z,1034.09
2019-02-24T11:13:46.063Z,1034.09
2019-02-24T11:14:46.077Z,1034.13
2019-02-24T11:15:46.093Z,1034.09
2019-02-24T11:17:46.128Z,1034.12
2019-02-24T11:18:46.144Z,1034.11
2019-02-24T11:19:46.163Z,1034.1
2019-02-24T11:20:46.179Z,1034.08
2019-02-24T11:21:46.195Z,1034.1
2019-02-24T11:22:46.212Z,1034.1
2019-02-24T11:23:46.231Z,1034.08
2019-02-24T11:24:46.247Z,1034.08
2019-02-24T11:25:46.263Z,1034.08
2019-02-24T11:26:46.279Z,1034.05
2019-02-24T11:27:46.297Z,1034.02
2019-02-24T11:28:46.314Z,1034.03
2019-02-24T11:29:46.330Z,1034
2019-02-24T11:30:46.348Z,1033.98
2019-02-24T11:31:46.368Z,1033.97
2019-02-24T11:33:46.399Z,1034.06
2019-02-24T11:34:46.418Z,1034.01
2019-02-24T11:35:46.433Z,1034.05
2019-02-24T11:36:46.450Z,1034.07
2019-02-24T11:37:46.467Z,1034.03
2019-02-24T11:38:46.486Z,1034.08
2019-02-24T11:39:46.502Z,1034.1
2019-02-24T11:40:46.519Z,1034.14
2019-02-24T11:41:46.537Z,1034.1
2019-02-24T11:42:46.554Z,1034.12
2019-02-24T11:43:46.570Z,1034.12
2019-02-24T11:44:46.689Z,1034.08
2019-02-24T11:45:46.605Z,1034.05
2019-02-24T11:46:46.622Z,1034.02
2019-02-24T11:47:46.639Z,1034.05
2019-02-24T11:49:46.673Z,1034.09
2019-02-24T11:50:46.692Z,1034.08
2019-02-24T11:51:46.707Z,1034.09
2019-02-24T11:52:46.725Z,1034.09
2019-02-24T11:53:46.743Z,1034.15
2019-02-24T11:54:46.759Z,1034.13
2019-02-24T11:55:46.877Z,1034.16
2019-02-24T11:56:46.793Z,1034.1
2019-02-24T11:57:46.811Z,1034.14
2019-02-24T11:58:46.829Z,1034.12
2019-02-24T11:59:46.845Z,1034.03
2019-02-24T12:00:46.863Z,1034.03
2019-02-24T12:01:47.689Z,1033.99
2019-02-24T12:02:46.899Z,1033.95
2019-02-24T12:04:46.984Z,1033.91
2019-02-24T12:05:46.950Z,1033.93
2019-02-24T12:06:46.967Z,1033.96
2019-02-24T12:07:46.985Z,1033.92
2019-02-24T12:08:47.003Z,1033.92
2019-02-24T12:09:47.021Z,1033.92
2019-02-24T12:10:47.037Z,1033.93
2019-02-24T12:11:47.055Z,1033.93
2019-02-24T12:12:47.072Z,1033.97
2019-02-24T12:13:47.090Z,1033.96
2019-02-24T12:14:47.108Z,1033.97
2019-02-24T12:15:47.125Z,1033.96
2019-02-24T12:16:47.142Z,1033.96
2019-02-24T12:17:47.160Z,1033.96
2019-02-24T12:18:47.180Z,1033.97
2019-02-24T12:19:47.196Z,1033.97
2019-02-24T12:20:47.213Z,1033.96
2019-02-24T12:21:47.231Z,1033.92
2019-02-24T12:22:47.247Z,1033.91
2019-02-24T12:23:47.265Z,1033.87
2019-02-24T12:24:47.283Z,1033.85
2019-02-24T12:25:47.301Z,1033.82
2019-02-24T12:26:47.319Z,1033.84
2019-02-24T12:27:47.335Z,1033.83
2019-02-24T12:28:47.353Z,1033.83
2019-02-24T12:29:47.373Z,1033.83
2019-02-24T12:30:47.392Z,1033.82
2019-02-24T12:31:56.161Z,1033.8
2019-02-24T12:32:47.425Z,1033.84
2019-02-24T12:33:47.443Z,1033.83
2019-02-24T12:34:47.460Z,1033.8
2019-02-24T12:36:47.499Z,1033.81
2019-02-24T12:37:47.518Z,1033.81
2019-02-24T12:38:47.530Z,1033.81
2019-02-24T12:39:47.550Z,1033.8
2019-02-24T12:40:47.568Z,1033.79
2019-02-24T12:41:47.585Z,1033.82
2019-02-24T12:42:47.603Z,1033.82
2019-02-24T12:43:47.621Z,1033.82
2019-02-24T12:44:47.645Z,1033.78
2019-02-24T12:45:47.656Z,1033.77
2019-02-24T12:46:47.674Z,1033.76
2019-02-24T12:47:47.700Z,1033.76
2019-02-24T12:48:47.710Z,1033.75